Time;durP1;ratioP1;P1;durP2;ratioP2;P2;SDS_P1;SDS_P2;PMS_P1;PMS_P2;Temp;Humidity;BMP_temperature;BMP_pressure;BME280_temperature;BME280_humidity;BME280_pressure;Samples;Min_cycle;Max_cycle;Signal;HPM_P1;HPM_P2
2022/12/21 00:01:08;;;;;;;;;;;3.10;99.90;;;;;;5047857;28;20593;-59
2022/12/21 00:03:34;;;;;;;;;;;3.10;99.90;;;;;;5055424;28;19924;-60
2022/12/21 00:06:01;;;;;;;;;;;3.10;99.90;;;;;;5037685;28;20039;-59
2022/12/21 00:08:28;;;;;;;;;;;3.10;99.90;;;;;;5041569;28;20027;-59
2022/12/21 00:10:58;;;;;;;;;;;3.10;99.90;;;;;;5034867;28;20468;-59
2022/12/21 00:13:25;;;;;;;;;;;3.10;99.90;;;;;;5040241;28;19935;-59
2022/12/21 00:15:58;;;;;;;;;;;3.10;99.90;;;;;;5045929;28;19933;-63
2022/12/21 00:18:25;;;;;;;;;;;3.10;99.90;;;;;;5053683;28;19983;-60
2022/12/21 00:20:59;;;;;;;;;;;3.10;99.90;;;;;;5049147;28;19925;-60
2022/12/21 00:23:26;;;;;;;;;;;3.10;99.90;;;;;;5046422;28;20459;-59
2022/12/21 00:25:52;;;;;;;;;;;3.10;99.90;;;;;;5042743;28;19996;-59
2022/12/21 00:28:19;;;;;;;;;;;3.20;99.90;;;;;;5047345;28;20540;-60
2022/12/21 00:30:46;;;;;;;;;;;3.20;99.90;;;;;;5049027;28;19925;-60
2022/12/21 00:33:14;;;;;;;;;;;3.20;99.90;;;;;;5052346;28;19928;-59
2022/12/21 00:35:41;;;;;;;;;;;3.10;99.90;;;;;;5051645;28;20387;-59
2022/12/21 00:38:08;;;;;;;;;;;3.10;99.90;;;;;;5033512;28;19929;-59
2022/12/21 00:40:35;;;;;;;;;;;3.10;99.90;;;;;;5048103;28;20008;-60
2022/12/21 00:43:01;;;;;;;;;;;3.10;99.90;;;;;;5054368;28;20409;-60
2022/12/21 00:45:28;;;;;;;;;;;3.10;99.90;;;;;;5051992;28;19929;-59
2022/12/21 00:47:55;;;;;;;;;;;3.20;99.90;;;;;;5051316;28;19933;-60
2022/12/21 00:50:23;;;;;;;;;;;3.20;99.90;;;;;;5029599;28;19978;-60
2022/12/21 00:52:50;;;;;;;;;;;3.10;99.90;;;;;;5043949;28;19968;-59
2022/12/21 00:55:17;;;;;;;;;;;3.10;99.90;;;;;;5050295;28;20356;-59
2022/12/21 00:57:44;;;;;;;;;;;3.20;99.90;;;;;;5042438;28;21239;-60
2022/12/21 01:00:14;;;;;;;;;;;3.20;99.90;;;;;;5042174;28;20471;-60
2022/12/21 01:02:40;;;;;;;;;;;3.20;99.90;;;;;;5051213;28;19974;-60
2022/12/21 01:05:08;;;;;;;;;;;3.20;99.90;;;;;;5036558;28;19978;-60
2022/12/21 01:07:36;;;;;;;;;;;3.20;99.90;;;;;;5045170;28;19925;-59
2022/12/21 01:10:06;;;;;;;;;;;3.20;99.90;;;;;;5035272;28;19983;-60
2022/12/21 01:12:33;;;;;;;;;;;3.20;99.90;;;;;;5048412;28;20372;-60
2022/12/21 01:14:59;;;;;;;;;;;3.20;99.90;;;;;;5038850;28;19924;-59
2022/12/21 01:17:26;;;;;;;;;;;3.20;99.90;;;;;;5036877;28;19929;-59
2022/12/21 01:19:53;;;;;;;;;;;3.20;99.90;;;;;;5048161;28;19941;-59
2022/12/21 01:22:23;;;;;;;;;;;3.20;99.90;;;;;;5042253;28;19935;-60
2022/12/21 01:24:51;;;;;;;;;;;3.20;99.90;;;;;;5045387;28;19971;-61
2022/12/21 01:27:18;;;;;;;;;;;3.20;99.90;;;;;;5045055;28;19932;-60
2022/12/21 01:29:44;;;;;;;;;;;3.20;99.90;;;;;;5049279;28;20376;-61
2022/12/21 01:32:11;;;;;;;;;;;3.20;99.90;;;;;;5051255;28;19924;-60
2022/12/21 01:34:38;;;;;;;;;;;3.20;99.90;;;;;;5047793;28;20216;-60
2022/12/21 01:37:06;;;;;;;;;;;3.20;99.90;;;;;;5029773;28;19931;-60
2022/12/21 01:39:33;;;;;;;;;;;3.20;99.90;;;;;;5037556;28;19933;-60
2022/12/21 01:42:01;;;;;;;;;;;3.20;99.90;;;;;;5047785;28;19931;-60
2022/12/21 01:44:46;;;;;;;;;;;3.20;99.90;;;;;;5046833;28;19940;-60
2022/12/21 01:47:15;;;;;;;;;;;3.20;99.90;;;;;;5051240;28;20416;-61
2022/12/21 01:49:42;;;;;;;;;;;3.20;99.90;;;;;;5049813;28;19954;-60
2022/12/21 01:52:12;;;;;;;;;;;3.20;99.90;;;;;;5027543;28;19933;-60
2022/12/21 01:54:41;;;;;;;;;;;3.20;99.90;;;;;;5046267;28;19936;-60
2022/12/21 01:57:10;;;;;;;;;;;3.20;99.90;;;;;;5053579;28;20304;-60
2022/12/21 01:59:40;;;;;;;;;;;3.20;99.90;;;;;;5045335;28;19964;-60
2022/12/21 02:02:10;;;;;;;;;;;3.20;99.90;;;;;;5031720;28;20438;-61
2022/12/21 02:04:40;;;;;;;;;;;3.20;99.90;;;;;;5048532;28;21651;-60
2022/12/21 02:07:07;;;;;;;;;;;3.20;99.90;;;;;;5049700;28;19964;-60
2022/12/21 02:09:34;;;;;;;;;;;3.20;99.90;;;;;;5024830;28;20509;-61
2022/12/21 02:12:02;;;;;;;;;;;3.20;99.90;;;;;;5048842;28;19929;-60
2022/12/21 02:14:32;;;;;;;;;;;3.20;99.90;;;;;;5043673;28;20160;-60
2022/12/21 02:17:03;;;;;;;;;;;3.20;99.90;;;;;;5043609;28;19947;-60
2022/12/21 02:19:45;;;;;;;;;;;3.20;99.90;;;;;;5043805;28;19929;-60
2022/12/21 02:22:16;;;;;;;;;;;3.20;99.90;;;;;;5026932;28;19934;-60
2022/12/21 02:24:51;;;;;;;;;;;3.20;99.90;;;;;;5044763;28;20364;-60
2022/12/21 02:27:36;;;;;;;;;;;3.30;99.90;;;;;;5042473;28;19929;-60
2022/12/21 02:30:10;;;;;;;;;;;3.20;99.90;;;;;;5027553;28;19933;-60
2022/12/21 02:32:43;;;;;;;;;;;3.20;99.90;;;;;;5044790;28;20403;-60
2022/12/21 02:35:16;;;;;;;;;;;3.20;99.90;;;;;;5044497;28;20016;-58
2022/12/21 02:37:47;;;;;;;;;;;3.20;99.90;;;;;;5039626;28;20299;-58
2022/12/21 02:40:18;;;;;;;;;;;3.30;99.90;;;;;;5038297;28;20002;-58
2022/12/21 02:45:34;;;;;;;;;;;3.30;99.90;;;;;;5046431;28;19928;-58
2022/12/21 02:48:05;;;;;;;;;;;3.20;99.90;;;;;;5036600;28;19952;-58
2022/12/21 02:50:34;;;;;;;;;;;3.30;99.90;;;;;;5046713;28;19928;-58
2022/12/21 02:53:02;;;;;;;;;;;3.30;99.90;;;;;;5040928;28;19941;-57
2022/12/21 02:55:29;;;;;;;;;;;3.30;99.90;;;;;;5040952;28;20577;-58
2022/12/21 02:58:14;;;;;;;;;;;3.30;99.90;;;;;;5030375;28;20384;-57
2022/12/21 03:00:47;;;;;;;;;;;3.30;99.90;;;;;;5039707;28;20411;-58
2022/12/21 03:06:16;;;;;;;;;;;3.30;99.90;;;;;;5043170;28;19931;-60
2022/12/21 03:08:49;;;;;;;;;;;3.30;99.90;;;;;;5034457;28;19935;-60
2022/12/21 03:11:16;;;;;;;;;;;3.30;99.90;;;;;;5028773;28;19932;-60
2022/12/21 03:13:48;;;;;;;;;;;3.30;99.90;;;;;;5048341;28;19925;-60
2022/12/21 03:16:17;;;;;;;;;;;3.30;99.90;;;;;;5040834;28;19963;-60
2022/12/21 03:18:50;;;;;;;;;;;3.30;99.90;;;;;;5044545;28;20600;-60
2022/12/21 03:21:20;;;;;;;;;;;3.30;99.90;;;;;;5035234;28;19933;-60
2022/12/21 03:23:49;;;;;;;;;;;3.30;99.90;;;;;;5033880;28;19932;-60
2022/12/21 03:26:19;;;;;;;;;;;3.30;99.90;;;;;;5048252;28;19962;-60
2022/12/21 03:28:47;;;;;;;;;;;3.30;99.90;;;;;;5045506;28;19935;-60
2022/12/21 03:31:16;;;;;;;;;;;3.30;99.90;;;;;;5038155;28;19929;-60
2022/12/21 03:33:46;;;;;;;;;;;3.30;99.90;;;;;;5053495;28;20030;-60
2022/12/21 03:36:17;;;;;;;;;;;3.30;99.90;;;;;;5046441;28;19929;-60
2022/12/21 03:38:46;;;;;;;;;;;3.30;99.90;;;;;;5043043;28;19924;-60
2022/12/21 03:41:15;;;;;;;;;;;3.30;99.90;;;;;;5044589;28;19924;-60
2022/12/21 03:43:43;;;;;;;;;;;3.30;99.90;;;;;;5047920;28;20285;-59
2022/12/21 03:46:14;;;;;;;;;;;3.30;99.90;;;;;;5048320;28;19935;-60
2022/12/21 03:48:42;;;;;;;;;;;3.40;99.90;;;;;;5027429;28;19925;-60
2022/12/21 03:51:13;;;;;;;;;;;3.40;99.90;;;;;;5051373;28;20007;-59
2022/12/21 03:53:44;;;;;;;;;;;3.40;99.90;;;;;;5047112;28;19944;-59
2022/12/21 03:56:15;;;;;;;;;;;3.40;99.90;;;;;;5044439;28;19924;-60
2022/12/21 03:58:42;;;;;;;;;;;3.40;99.90;;;;;;5052296;28;19935;-59
2022/12/21 04:01:17;;;;;;;;;;;3.40;99.90;;;;;;5057179;28;19924;-60
2022/12/21 04:03:46;;;;;;;;;;;3.40;99.90;;;;;;5044838;28;19925;-60
2022/12/21 04:06:16;;;;;;;;;;;3.40;99.90;;;;;;5055409;28;19932;-60
2022/12/21 04:08:44;;;;;;;;;;;3.40;99.90;;;;;;5045582;28;19933;-60
2022/12/21 04:12:36;;;;;;;;;;;3.40;99.90;;;;;;5054162;28;19932;-59
2022/12/21 04:13:57;;;;;;;;;;;3.40;99.90;;;;;;5031823;28;19931;-60
2022/12/21 04:16:24;;;;;;;;;;;3.40;99.90;;;;;;5049016;28;19921;-60
2022/12/21 04:21:35;;;;;;;;;;;3.40;99.90;;;;;;5050391;28;19974;-60
2022/12/21 04:29:32;;;;;;;;;;;3.40;99.90;;;;;;5050870;28;19921;-60
2022/12/21 04:31:59;;;;;;;;;;;3.40;99.90;;;;;;5038562;28;20340;-60
2022/12/21 04:34:25;;;;;;;;;;;3.40;99.90;;;;;;5047678;28;19936;-60
2022/12/21 04:39:38;;;;;;;;;;;3.40;99.90;;;;;;5033827;28;19943;-60
2022/12/21 04:42:05;;;;;;;;;;;3.40;99.90;;;;;;5048757;28;20015;-60
2022/12/21 04:44:31;;;;;;;;;;;3.40;99.90;;;;;;5040950;28;19933;-60
2022/12/21 04:46:58;;;;;;;;;;;3.40;99.90;;;;;;5046946;28;19929;-60
2022/12/21 04:49:25;;;;;;;;;;;3.50;99.90;;;;;;5041846;28;19978;-60
2022/12/21 04:51:52;;;;;;;;;;;3.50;99.90;;;;;;5044094;28;19925;-60
2022/12/21 04:54:19;;;;;;;;;;;3.50;99.90;;;;;;5039684;28;20071;-60
2022/12/21 04:56:48;;;;;;;;;;;3.50;99.90;;;;;;5043134;28;20273;-60
2022/12/21 04:59:17;;;;;;;;;;;3.50;99.90;;;;;;5042861;28;19932;-59
2022/12/21 05:01:44;;;;;;;;;;;3.50;99.90;;;;;;5038251;28;20793;-60
2022/12/21 05:04:11;;;;;;;;;;;3.50;99.90;;;;;;5037751;28;19955;-60
2022/12/21 05:06:38;;;;;;;;;;;3.50;99.90;;;;;;5041112;28;19924;-60
2022/12/21 05:09:04;;;;;;;;;;;3.50;99.90;;;;;;5042076;28;19964;-59
2022/12/21 05:11:33;;;;;;;;;;;3.50;99.90;;;;;;5045774;28;19925;-59
2022/12/21 05:14:01;;;;;;;;;;;3.50;99.90;;;;;;5050185;28;19936;-59
2022/12/21 05:16:28;;;;;;;;;;;3.50;99.90;;;;;;5048924;28;19924;-60
2022/12/21 05:18:56;;;;;;;;;;;3.60;99.90;;;;;;5051922;28;19932;-59
2022/12/21 05:21:22;;;;;;;;;;;3.60;99.90;;;;;;5049562;28;20358;-59
2022/12/21 05:23:49;;;;;;;;;;;3.60;99.90;;;;;;5050053;28;20023;-59
2022/12/21 05:26:17;;;;;;;;;;;3.60;99.90;;;;;;5056480;28;19928;-59
2022/12/21 05:28:44;;;;;;;;;;;3.60;99.90;;;;;;5050206;28;20015;-59
2022/12/21 05:31:12;;;;;;;;;;;3.60;99.90;;;;;;5047139;28;20023;-59
2022/12/21 05:33:39;;;;;;;;;;;3.60;99.90;;;;;;5043133;28;19929;-60
2022/12/21 05:36:07;;;;;;;;;;;3.60;99.90;;;;;;5047119;28;19978;-60
2022/12/21 05:38:34;;;;;;;;;;;3.60;99.90;;;;;;5051663;28;19929;-59
2022/12/21 05:41:01;;;;;;;;;;;3.60;99.90;;;;;;5052079;28;19967;-59
2022/12/21 05:43:28;;;;;;;;;;;3.60;99.90;;;;;;5038930;28;19925;-57
2022/12/21 05:46:00;;;;;;;;;;;3.60;99.90;;;;;;5051988;28;20388;-57
2022/12/21 05:48:28;;;;;;;;;;;3.60;99.90;;;;;;5046479;28;20712;-57
2022/12/21 05:50:54;;;;;;;;;;;3.60;99.90;;;;;;5045797;28;19925;-57
2022/12/21 05:53:21;;;;;;;;;;;3.60;99.90;;;;;;5043378;28;19929;-62
2022/12/21 05:55:48;;;;;;;;;;;3.60;99.90;;;;;;5048931;28;20012;-57
2022/12/21 05:58:15;;;;;;;;;;;3.60;99.90;;;;;;5049453;28;20307;-56
2022/12/21 06:00:42;;;;;;;;;;;3.70;99.90;;;;;;5053615;28;19925;-57
2022/12/21 06:03:09;;;;;;;;;;;3.70;99.90;;;;;;5049257;28;19925;-57
2022/12/21 06:05:38;;;;;;;;;;;3.70;99.90;;;;;;5040724;28;19955;-59
2022/12/21 06:08:05;;;;;;;;;;;3.70;99.90;;;;;;5049800;28;19978;-60
2022/12/21 06:10:31;;;;;;;;;;;3.70;99.90;;;;;;5060530;28;19928;-60
2022/12/21 06:12:58;;;;;;;;;;;3.70;99.90;;;;;;5039448;28;20004;-60
2022/12/21 06:15:25;;;;;;;;;;;3.70;99.90;;;;;;5042176;28;19924;-60
2022/12/21 06:17:52;;;;;;;;;;;3.70;99.90;;;;;;5041142;28;19931;-59
2022/12/21 06:20:19;;;;;;;;;;;3.70;99.90;;;;;;5047680;28;20011;-59
2022/12/21 06:22:47;;;;;;;;;;;3.70;99.90;;;;;;5049019;28;20006;-59
2022/12/21 06:25:13;;;;;;;;;;;3.70;99.90;;;;;;5050095;28;19928;-60
2022/12/21 06:27:40;;;;;;;;;;;3.70;99.90;;;;;;5034559;28;19933;-60
2022/12/21 06:30:09;;;;;;;;;;;3.70;99.90;;;;;;5028882;28;20410;-60
2022/12/21 06:32:37;;;;;;;;;;;3.70;99.90;;;;;;5047223;28;19932;-60
2022/12/21 06:35:05;;;;;;;;;;;3.70;99.90;;;;;;5047873;28;19932;-59
2022/12/21 06:37:32;;;;;;;;;;;3.70;99.90;;;;;;5052695;28;19937;-59
2022/12/21 06:40:00;;;;;;;;;;;3.70;99.90;;;;;;5055284;28;19925;-59
2022/12/21 06:42:27;;;;;;;;;;;3.80;99.90;;;;;;5046696;28;19925;-60
2022/12/21 06:44:53;;;;;;;;;;;3.80;99.90;;;;;;5031148;28;19929;-60
2022/12/21 06:47:21;;;;;;;;;;;3.70;99.90;;;;;;5042812;28;20413;-59
2022/12/21 06:49:47;;;;;;;;;;;3.70;99.90;;;;;;5041784;28;19924;-60
2022/12/21 06:52:14;;;;;;;;;;;3.70;99.90;;;;;;5045106;28;19925;-59
2022/12/21 06:54:41;;;;;;;;;;;3.80;99.90;;;;;;5049799;28;19929;-59
2022/12/21 06:57:09;;;;;;;;;;;3.80;99.90;;;;;;5044437;28;20331;-59
2022/12/21 06:59:36;;;;;;;;;;;3.70;99.90;;;;;;5038911;28;19968;-59
2022/12/21 07:02:03;;;;;;;;;;;3.70;99.90;;;;;;5051518;28;19932;-59
2022/12/21 07:04:30;;;;;;;;;;;3.70;99.90;;;;;;5042560;28;20414;-59
2022/12/21 07:06:57;;;;;;;;;;;3.80;99.90;;;;;;5043349;28;19929;-60
2022/12/21 07:09:24;;;;;;;;;;;3.80;99.90;;;;;;5043857;28;20025;-59
2022/12/21 07:11:52;;;;;;;;;;;3.80;99.90;;;;;;5035133;28;21075;-59
2022/12/21 07:14:20;;;;;;;;;;;3.80;99.90;;;;;;5039994;28;20368;-59
2022/12/21 07:16:48;;;;;;;;;;;3.80;99.90;;;;;;5034024;28;20392;-59
2022/12/21 07:19:15;;;;;;;;;;;3.80;99.90;;;;;;5045776;28;20304;-59
2022/12/21 07:21:42;;;;;;;;;;;3.80;99.90;;;;;;5040635;28;19924;-59
2022/12/21 07:24:09;;;;;;;;;;;3.80;99.90;;;;;;5044019;28;19983;-59
2022/12/21 07:26:36;;;;;;;;;;;3.90;99.90;;;;;;5043645;28;19987;-59
2022/12/21 07:29:02;;;;;;;;;;;3.90;99.90;;;;;;5040906;28;20812;-59
2022/12/21 07:31:31;;;;;;;;;;;3.90;99.90;;;;;;5047404;28;19928;-59
2022/12/21 07:33:57;;;;;;;;;;;3.90;99.90;;;;;;5039778;28;20396;-59
2022/12/21 07:36:24;;;;;;;;;;;3.90;99.90;;;;;;5041264;28;19933;-59
2022/12/21 07:38:51;;;;;;;;;;;3.90;99.90;;;;;;5049593;28;19976;-62
2022/12/21 07:41:18;;;;;;;;;;;4.00;99.90;;;;;;5037757;28;19932;-62
2022/12/21 07:43:45;;;;;;;;;;;4.00;99.90;;;;;;5042742;28;20531;-62
2022/12/21 07:46:18;;;;;;;;;;;4.00;99.90;;;;;;5043842;28;20620;-57
2022/12/21 07:48:46;;;;;;;;;;;4.00;99.90;;;;;;5042215;28;19925;-57
2022/12/21 07:51:13;;;;;;;;;;;4.00;99.90;;;;;;5046139;28;19925;-58
2022/12/21 07:53:40;;;;;;;;;;;4.00;99.90;;;;;;5043611;28;19932;-57
2022/12/21 07:56:08;;;;;;;;;;;4.00;99.90;;;;;;5037084;28;19925;-57
2022/12/21 07:58:35;;;;;;;;;;;4.00;99.90;;;;;;5041459;28;20054;-57
2022/12/21 08:01:09;;;;;;;;;;;4.10;99.90;;;;;;5046398;28;19939;-61
2022/12/21 08:03:36;;;;;;;;;;;4.10;99.90;;;;;;5048042;28;20406;-58
2022/12/21 08:06:06;;;;;;;;;;;4.10;99.90;;;;;;5037235;28;20015;-57
2022/12/21 08:08:32;;;;;;;;;;;4.10;99.90;;;;;;5041794;28;19990;-57
2022/12/21 08:10:59;;;;;;;;;;;4.10;99.90;;;;;;5045030;28;20457;-57
2022/12/21 08:13:26;;;;;;;;;;;4.20;99.90;;;;;;5035399;28;22287;-56
2022/12/21 08:15:58;;;;;;;;;;;4.20;99.90;;;;;;5026034;28;19925;-57
2022/12/21 08:18:25;;;;;;;;;;;4.20;99.90;;;;;;5038277;28;19964;-56
2022/12/21 08:20:53;;;;;;;;;;;4.20;99.90;;;;;;5040463;28;19928;-57
2022/12/21 08:23:22;;;;;;;;;;;4.20;99.90;;;;;;5039721;28;20051;-56
2022/12/21 08:25:49;;;;;;;;;;;4.20;99.90;;;;;;5040310;28;19939;-56
2022/12/21 08:28:17;;;;;;;;;;;4.20;99.90;;;;;;5035041;28;19977;-56
2022/12/21 08:30:44;;;;;;;;;;;4.20;99.90;;;;;;5028319;28;19939;-57
2022/12/21 08:33:11;;;;;;;;;;;4.30;99.90;;;;;;5033985;28;20070;-56
2022/12/21 08:35:38;;;;;;;;;;;4.30;99.90;;;;;;5046720;28;19964;-57
2022/12/21 08:38:05;;;;;;;;;;;4.30;99.90;;;;;;5051307;28;19929;-60
2022/12/21 08:40:33;;;;;;;;;;;4.30;99.90;;;;;;5051718;28;19976;-60
2022/12/21 08:43:00;;;;;;;;;;;4.30;99.90;;;;;;5046941;28;19933;-60
2022/12/21 08:45:26;;;;;;;;;;;4.30;99.90;;;;;;5044384;28;20334;-60
2022/12/21 08:47:53;;;;;;;;;;;4.30;99.90;;;;;;5026879;28;20319;-60
2022/12/21 08:50:20;;;;;;;;;;;4.30;99.90;;;;;;5036562;28;20019;-59
2022/12/21 08:52:48;;;;;;;;;;;4.30;99.90;;;;;;5031057;28;19929;-59
2022/12/21 08:55:15;;;;;;;;;;;4.30;99.90;;;;;;5040292;28;20299;-60
2022/12/21 08:57:43;;;;;;;;;;;4.30;99.90;;;;;;5039028;28;20001;-59
2022/12/21 09:00:11;;;;;;;;;;;4.40;99.90;;;;;;5032917;28;19965;-63
2022/12/21 09:02:38;;;;;;;;;;;4.40;99.90;;;;;;5036852;28;19933;-62
2022/12/21 09:05:05;;;;;;;;;;;4.40;99.90;;;;;;5035763;28;19947;-62
2022/12/21 09:07:32;;;;;;;;;;;4.40;99.90;;;;;;5036791;28;20042;-63
2022/12/21 09:09:58;;;;;;;;;;;4.40;99.90;;;;;;5045118;28;19925;-62
2022/12/21 09:12:25;;;;;;;;;;;4.50;99.90;;;;;;5037907;28;19931;-63
2022/12/21 09:14:54;;;;;;;;;;;4.50;99.90;;;;;;5034748;28;19940;-62
2022/12/21 09:17:21;;;;;;;;;;;4.40;99.90;;;;;;5036400;28;19929;-63
2022/12/21 09:19:48;;;;;;;;;;;4.50;99.90;;;;;;5037913;28;19986;-62
2022/12/21 09:22:14;;;;;;;;;;;4.50;99.90;;;;;;5047044;28;20072;-63
2022/12/21 09:24:41;;;;;;;;;;;4.50;99.90;;;;;;5039736;28;19932;-56
2022/12/21 09:27:08;;;;;;;;;;;4.50;99.90;;;;;;5040918;28;19925;-56
2022/12/21 09:29:35;;;;;;;;;;;4.50;99.90;;;;;;5046699;28;19929;-56
2022/12/21 09:32:03;;;;;;;;;;;4.50;99.90;;;;;;5039608;28;19964;-57
2022/12/21 09:34:30;;;;;;;;;;;4.50;99.90;;;;;;5040292;28;19924;-57
2022/12/21 09:36:59;;;;;;;;;;;4.60;99.90;;;;;;5051287;28;20399;-56
2022/12/21 09:39:25;;;;;;;;;;;4.50;99.90;;;;;;5040878;28;20019;-56
2022/12/21 09:42:00;;;;;;;;;;;4.60;99.90;;;;;;5048135;28;20431;-56
2022/12/21 09:44:42;;;;;;;;;;;4.60;99.90;;;;;;5039672;28;19936;-56
2022/12/21 09:47:14;;;;;;;;;;;4.60;99.90;;;;;;5042020;28;19931;-57
2022/12/21 09:49:42;;;;;;;;;;;4.60;99.90;;;;;;5042212;28;20440;-56
2022/12/21 09:52:15;;;;;;;;;;;4.60;99.90;;;;;;5042422;28;20023;-56
2022/12/21 09:54:43;;;;;;;;;;;4.60;99.90;;;;;;5037556;28;19951;-57
2022/12/21 09:57:11;;;;;;;;;;;4.60;99.90;;;;;;5043953;28;19939;-57
2022/12/21 09:59:38;;;;;;;;;;;4.70;99.90;;;;;;5041398;28;19933;-57
2022/12/21 10:02:10;;;;;;;;;;;4.70;99.90;;;;;;5035572;28;19925;-57
2022/12/21 10:04:42;;;;;;;;;;;4.70;99.90;;;;;;5041687;28;19933;-57
2022/12/21 10:07:24;;;;;;;;;;;4.80;99.90;;;;;;5047773;28;19928;-57
2022/12/21 10:09:57;;;;;;;;;;;4.70;99.90;;;;;;5047395;28;19928;-57
2022/12/21 10:12:30;;;;;;;;;;;4.80;99.90;;;;;;5044431;28;19964;-57
2022/12/21 10:15:01;;;;;;;;;;;4.80;99.90;;;;;;5038005;28;19929;-57
2022/12/21 10:17:39;;;;;;;;;;;4.80;99.90;;;;;;5043119;28;20540;-56
2022/12/21 10:20:16;;;;;;;;;;;4.80;99.90;;;;;;5046646;28;20366;-56
2022/12/21 10:22:44;;;;;;;;;;;4.80;99.90;;;;;;5043207;28;19955;-57
2022/12/21 10:25:15;;;;;;;;;;;4.80;99.90;;;;;;5040729;28;19937;-57
2022/12/21 10:27:44;;;;;;;;;;;4.80;99.90;;;;;;5054032;28;20391;-57
2022/12/21 10:30:13;;;;;;;;;;;4.80;99.90;;;;;;5043354;28;19936;-57
2022/12/21 10:32:41;;;;;;;;;;;4.80;99.90;;;;;;5045003;28;19925;-57
2022/12/21 10:35:20;;;;;;;;;;;4.80;99.90;;;;;;5046392;28;19939;-57
2022/12/21 10:37:49;;;;;;;;;;;4.80;99.90;;;;;;5044262;28;19960;-57
2022/12/21 10:40:16;;;;;;;;;;;4.80;99.90;;;;;;5044054;28;19931;-57
2022/12/21 10:42:44;;;;;;;;;;;4.80;99.90;;;;;;5051391;28;19933;-57
2022/12/21 10:45:13;;;;;;;;;;;4.80;99.90;;;;;;5053311;28;20015;-57
2022/12/21 10:47:43;;;;;;;;;;;4.80;99.90;;;;;;5039343;28;19937;-57
2022/12/21 10:50:12;;;;;;;;;;;4.80;99.90;;;;;;5043346;28;20490;-57
2022/12/21 10:52:41;;;;;;;;;;;4.80;99.90;;;;;;5038028;28;20748;-57
2022/12/21 10:55:25;;;;;;;;;;;4.80;99.90;;;;;;5036302;28;20395;-57
2022/12/21 10:57:54;;;;;;;;;;;4.90;99.90;;;;;;5032678;28;19933;-57
2022/12/21 11:00:22;;;;;;;;;;;4.90;99.90;;;;;;5045574;28;19925;-57
2022/12/21 11:02:50;;;;;;;;;;;4.90;99.90;;;;;;5044415;28;20547;-57
2022/12/21 11:05:27;;;;;;;;;;;4.90;99.90;;;;;;5051329;28;19929;-58
2022/12/21 11:08:10;;;;;;;;;;;4.90;99.90;;;;;;5046505;28;19951;-57
2022/12/21 11:10:37;;;;;;;;;;;4.90;99.90;;;;;;5039335;28;19925;-57
2022/12/21 11:13:05;;;;;;;;;;;4.90;99.90;;;;;;5049677;28;19924;-58
2022/12/21 11:15:32;;;;;;;;;;;4.90;99.90;;;;;;5055817;28;20395;-57
2022/12/21 11:17:59;;;;;;;;;;;5.00;99.90;;;;;;5047016;28;20584;-57
2022/12/21 11:20:26;;;;;;;;;;;5.00;99.90;;;;;;5043951;28;20413;-57
2022/12/21 11:22:54;;;;;;;;;;;5.00;99.90;;;;;;5048208;28;19928;-57
2022/12/21 11:25:24;;;;;;;;;;;5.00;99.90;;;;;;5057619;28;20296;-57
2022/12/21 11:27:53;;;;;;;;;;;5.10;99.90;;;;;;5042732;28;19964;-56
2022/12/21 11:30:21;;;;;;;;;;;5.10;99.90;;;;;;5048152;28;19939;-57
2022/12/21 11:32:49;;;;;;;;;;;5.10;99.90;;;;;;5044548;28;20448;-57
2022/12/21 11:35:18;;;;;;;;;;;5.10;99.90;;;;;;5044252;28;20451;-57
2022/12/21 11:37:46;;;;;;;;;;;5.10;99.90;;;;;;5045976;28;19933;-57
2022/12/21 11:40:14;;;;;;;;;;;5.10;99.90;;;;;;5034232;28;20374;-56
2022/12/21 11:42:50;;;;;;;;;;;5.20;99.90;;;;;;5030415;28;20198;-56
2022/12/21 11:45:20;;;;;;;;;;;5.10;99.90;;;;;;5037131;28;20020;-57
2022/12/21 11:47:51;;;;;;;;;;;5.20;99.90;;;;;;5038013;28;20028;-61
2022/12/21 11:50:25;;;;;;;;;;;5.20;99.90;;;;;;5037535;28;19939;-56
2022/12/21 11:53:09;;;;;;;;;;;5.20;99.90;;;;;;5035483;28;19929;-57
2022/12/21 11:55:37;;;;;;;;;;;5.20;99.90;;;;;;5032907;28;20036;-56
2022/12/21 11:58:09;;;;;;;;;;;5.20;99.90;;;;;;5038807;28;19929;-56
2022/12/21 12:00:40;;;;;;;;;;;5.20;99.90;;;;;;5034370;28;19999;-56
2022/12/21 12:03:19;;;;;;;;;;;5.20;99.90;;;;;;5036737;28;20300;-57
2022/12/21 12:05:51;;;;;;;;;;;5.20;99.90;;;;;;5034023;28;20013;-57
2022/12/21 12:08:27;;;;;;;;;;;5.20;99.90;;;;;;5047396;28;20040;-56
2022/12/21 12:11:02;;;;;;;;;;;5.30;99.90;;;;;;5040886;28;20288;-57
2022/12/21 12:13:36;;;;;;;;;;;5.30;99.90;;;;;;5037676;28;19952;-57
2022/12/21 12:16:06;;;;;;;;;;;5.30;99.90;;;;;;5043213;28;19937;-57
2022/12/21 12:18:41;;;;;;;;;;;5.30;99.90;;;;;;5051383;28;19933;-57
2022/12/21 12:21:23;;;;;;;;;;;5.40;99.90;;;;;;5051730;28;19925;-58
2022/12/21 12:23:54;;;;;;;;;;;5.40;99.90;;;;;;5048417;28;20047;-59
2022/12/21 12:26:26;;;;;;;;;;;5.40;99.90;;;;;;5050739;28;19941;-60
2022/12/21 12:29:08;;;;;;;;;;;5.40;99.90;;;;;;5048432;28;20419;-59
2022/12/21 12:31:45;;;;;;;;;;;5.40;99.90;;;;;;5047026;28;19931;-59
2022/12/21 12:34:27;;;;;;;;;;;5.40;99.90;;;;;;5048688;28;20047;-58
2022/12/21 12:37:00;;;;;;;;;;;5.40;99.90;;;;;;5044370;28;19932;-59
2022/12/21 12:39:33;;;;;;;;;;;5.40;99.90;;;;;;5043312;28;20456;-59
2022/12/21 12:42:06;;;;;;;;;;;5.40;99.90;;;;;;5042830;28;19932;-57
2022/12/21 12:44:38;;;;;;;;;;;5.40;99.90;;;;;;5045113;28;20711;-57
2022/12/21 12:47:08;;;;;;;;;;;5.40;99.90;;;;;;5041545;28;20368;-57
2022/12/21 12:49:48;;;;;;;;;;;5.40;99.90;;;;;;5049981;28;19929;-57
2022/12/21 12:52:20;;;;;;;;;;;5.40;99.90;;;;;;5042255;28;20028;-57
2022/12/21 12:54:51;;;;;;;;;;;5.40;99.90;;;;;;5040940;28;20135;-60
2022/12/21 12:57:21;;;;;;;;;;;5.40;99.90;;;;;;5049379;28;19925;-57
2022/12/21 12:59:52;;;;;;;;;;;5.40;99.90;;;;;;5044365;28;19928;-57
2022/12/21 13:02:26;;;;;;;;;;;5.40;99.90;;;;;;5039305;28;20641;-60
2022/12/21 13:05:00;;;;;;;;;;;5.40;99.90;;;;;;5043391;28;19940;-59
2022/12/21 13:07:31;;;;;;;;;;;5.40;99.90;;;;;;5046189;28;19925;-57
2022/12/21 13:10:00;;;;;;;;;;;5.40;99.90;;;;;;5040340;28;19944;-60
2022/12/21 13:12:30;;;;;;;;;;;5.40;99.90;;;;;;5041730;28;20173;-60
2022/12/21 13:14:59;;;;;;;;;;;5.50;99.90;;;;;;5047787;28;19935;-59
2022/12/21 13:17:30;;;;;;;;;;;5.50;99.90;;;;;;5044725;28;19932;-60
2022/12/21 13:19:59;;;;;;;;;;;5.50;99.90;;;;;;5047669;28;21782;-59
2022/12/21 13:22:28;;;;;;;;;;;5.50;99.90;;;;;;5040876;28;19932;-59
2022/12/21 13:24:58;;;;;;;;;;;5.50;99.90;;;;;;5039315;28;19933;-61
2022/12/21 13:27:27;;;;;;;;;;;5.50;99.90;;;;;;5047839;28;19929;-59
2022/12/21 13:29:57;;;;;;;;;;;5.50;99.90;;;;;;5041739;28;20309;-58
2022/12/21 13:32:27;;;;;;;;;;;5.50;99.90;;;;;;5050529;28;19933;-59
2022/12/21 13:34:56;;;;;;;;;;;5.50;99.90;;;;;;5056494;28;19971;-59
2022/12/21 13:37:23;;;;;;;;;;;5.50;99.90;;;;;;5043462;28;20031;-59
2022/12/21 13:39:59;;;;;;;;;;;5.50;99.90;;;;;;5047748;28;20036;-60
2022/12/21 13:42:27;;;;;;;;;;;5.60;99.90;;;;;;5051387;28;19932;-56
2022/12/21 13:44:57;;;;;;;;;;;5.50;99.90;;;;;;5047306;28;19924;-57
2022/12/21 13:47:26;;;;;;;;;;;5.50;99.90;;;;;;5038952;28;19943;-59
2022/12/21 13:49:58;;;;;;;;;;;5.50;99.90;;;;;;5038615;28;20668;-60
2022/12/21 13:52:28;;;;;;;;;;;5.50;99.90;;;;;;5045780;28;19964;-59
2022/12/21 13:54:58;;;;;;;;;;;5.50;99.90;;;;;;5041656;28;20455;-59
2022/12/21 13:57:27;;;;;;;;;;;5.60;99.90;;;;;;5034576;28;19928;-59
2022/12/21 13:59:57;;;;;;;;;;;5.60;99.90;;;;;;5053766;28;20304;-59
2022/12/21 14:02:38;;;;;;;;;;;5.60;99.90;;;;;;5050171;28;19967;-59
2022/12/21 14:05:08;;;;;;;;;;;5.60;99.90;;;;;;5042463;28;20013;-60
2022/12/21 14:07:49;;;;;;;;;;;5.60;99.90;;;;;;5047266;28;19929;-59
2022/12/21 14:10:19;;;;;;;;;;;5.60;99.90;;;;;;5050846;28;20364;-59
2022/12/21 14:12:55;;;;;;;;;;;5.60;99.90;;;;;;5047640;28;20870;-59
2022/12/21 14:15:38;;;;;;;;;;;5.60;99.90;;;;;;5052063;28;19968;-60
2022/12/21 14:18:05;;;;;;;;;;;5.60;99.90;;;;;;5055698;28;20308;-59
2022/12/21 14:20:35;;;;;;;;;;;5.60;99.90;;;;;;5031998;28;19968;-59
2022/12/21 14:23:03;;;;;;;;;;;5.60;99.90;;;;;;5051429;28;19925;-58
2022/12/21 14:25:34;;;;;;;;;;;5.70;99.90;;;;;;5053253;28;20023;-56
2022/12/21 14:28:11;;;;;;;;;;;5.70;99.90;;;;;;5052224;28;20433;-57
2022/12/21 14:30:38;;;;;;;;;;;5.70;99.90;;;;;;5044159;28;19956;-56
2022/12/21 14:33:10;;;;;;;;;;;5.70;99.90;;;;;;5051544;28;19939;-56
2022/12/21 14:35:41;;;;;;;;;;;5.70;99.90;;;;;;5043647;28;19932;-56
2022/12/21 14:38:10;;;;;;;;;;;5.70;99.90;;;;;;5047769;28;19968;-57
2022/12/21 14:40:55;;;;;;;;;;;5.70;99.90;;;;;;5055494;28;20282;-56
2022/12/21 14:43:22;;;;;;;;;;;5.60;99.90;;;;;;5046709;28;19932;-57
2022/12/21 14:45:49;;;;;;;;;;;5.60;99.90;;;;;;5050573;28;20437;-56
2022/12/21 14:48:40;;;;;;;;;;;5.60;99.90;;;;;;5046979;28;20396;-56
2022/12/21 14:51:10;;;;;;;;;;;5.60;99.90;;;;;;5051358;28;19932;-56
2022/12/21 14:53:38;;;;;;;;;;;5.60;99.90;;;;;;5042912;28;19935;-56
2022/12/21 14:56:06;;;;;;;;;;;5.60;99.90;;;;;;5048788;28;19929;-57
2022/12/21 14:58:34;;;;;;;;;;;5.60;99.90;;;;;;5050919;28;20070;-56
2022/12/21 15:01:08;;;;;;;;;;;5.70;99.90;;;;;;5057601;28;19929;-56